North Auburn, Nebraska
Current Conditions -  °F | °C
As of 10:35 AM on Friday 24 Oct 2014 (Local Time) from KAFK Reporting Station
Haze Haze  
Wind Chill: 62°   Ceiling: 500
Heat Index: 62°   Visibility: 5mi
Dew Point: 62°   Wind: 13mph
Humidity: 100%   Direction: 210°SSW
Pressure: 29.96"   Gusts: NA
Location:  40.3314°N, 95.8994°W
Report Text: KAFK 241535Z AUTO 21011KT 5SM BR OVC005 16/16 A2996 RMK AO2 T01640164
Loading
Personal Weather Stations






























Interactive Weather Map
Tropical Storm Tracking
New forecast layout! Learn more

10-Day Weather Forecast

Advertisements
Track Severe Weather on mobile